sensor_id;sensor_type;location;lat;lon;timestamp;temperature;humidity
42135;DHT22;28312;43.460;11.810;2023-04-19T00:02:10;7.50;59.40
42135;DHT22;28312;43.460;11.810;2023-04-19T00:06:14;7.40;59.60
42135;DHT22;28312;43.460;11.810;2023-04-19T00:10:18;7.40;59.70
42135;DHT22;28312;43.460;11.810;2023-04-19T00:14:21;7.30;59.70
42135;DHT22;28312;43.460;11.810;2023-04-19T00:18:25;7.30;59.80
42135;DHT22;28312;43.460;11.810;2023-04-19T00:22:28;7.30;59.90
42135;DHT22;28312;43.460;11.810;2023-04-19T00:26:32;7.30;59.80
42135;DHT22;28312;43.460;11.810;2023-04-19T00:30:36;7.30;59.80
42135;DHT22;28312;43.460;11.810;2023-04-19T00:34:41;7.20;59.80
42135;DHT22;28312;43.460;11.810;2023-04-19T00:38:45;7.20;59.90
42135;DHT22;28312;43.460;11.810;2023-04-19T00:42:49;7.20;59.90
42135;DHT22;28312;43.460;11.810;2023-04-19T00:46:53;7.20;59.90
42135;DHT22;28312;43.460;11.810;2023-04-19T00:50:57;7.10;60.00
42135;DHT22;28312;43.460;11.810;2023-04-19T00:55:01;7.10;60.00
42135;DHT22;28312;43.460;11.810;2023-04-19T00:59:06;7.00;60.20
42135;DHT22;28312;43.460;11.810;2023-04-19T01:03:09;7.10;60.40
42135;DHT22;28312;43.460;11.810;2023-04-19T01:07:13;7.20;60.50
42135;DHT22;28312;43.460;11.810;2023-04-19T01:11:17;7.30;60.40
42135;DHT22;28312;43.460;11.810;2023-04-19T01:15:21;7.40;60.30
42135;DHT22;28312;43.460;11.810;2023-04-19T01:19:25;7.40;60.40
42135;DHT22;28312;43.460;11.810;2023-04-19T01:23:29;7.50;60.40
42135;DHT22;28312;43.460;11.810;2023-04-19T01:27:33;7.50;60.60
42135;DHT22;28312;43.460;11.810;2023-04-19T01:31:36;7.50;60.50
42135;DHT22;28312;43.460;11.810;2023-04-19T01:35:40;7.50;60.40
42135;DHT22;28312;43.460;11.810;2023-04-19T01:39:44;7.40;60.30
42135;DHT22;28312;43.460;11.810;2023-04-19T01:43:48;7.40;60.40
42135;DHT22;28312;43.460;11.810;2023-04-19T01:47:52;7.30;60.30
42135;DHT22;28312;43.460;11.810;2023-04-19T01:51:55;7.30;60.30
42135;DHT22;28312;43.460;11.810;2023-04-19T01:56:01;7.30;60.30
42135;DHT22;28312;43.460;11.810;2023-04-19T02:00:05;7.20;60.40
42135;DHT22;28312;43.460;11.810;2023-04-19T02:04:20;7.20;60.40
42135;DHT22;28312;43.460;11.810;2023-04-19T02:08:25;7.10;60.50
42135;DHT22;28312;43.460;11.810;2023-04-19T02:12:29;7.00;60.60
42135;DHT22;28312;43.460;11.810;2023-04-19T02:16:37;6.90;60.70
42135;DHT22;28312;43.460;11.810;2023-04-19T02:20:42;6.80;60.70
42135;DHT22;28312;43.460;11.810;2023-04-19T02:24:51;6.80;60.80
42135;DHT22;28312;43.460;11.810;2023-04-19T02:29:00;6.70;60.90
42135;DHT22;28312;43.460;11.810;2023-04-19T02:33:06;6.60;60.90
42135;DHT22;28312;43.460;11.810;2023-04-19T02:37:09;6.70;60.80
42135;DHT22;28312;43.460;11.810;2023-04-19T02:41:16;6.50;61.00
42135;DHT22;28312;43.460;11.810;2023-04-19T02:45:19;6.50;61.00
42135;DHT22;28312;43.460;11.810;2023-04-19T02:49:23;6.40;61.20
42135;DHT22;28312;43.460;11.810;2023-04-19T02:53:26;6.50;61.30
42135;DHT22;28312;43.460;11.810;2023-04-19T02:57:31;6.50;61.30
42135;DHT22;28312;43.460;11.810;2023-04-19T03:01:36;6.50;61.30
42135;DHT22;28312;43.460;11.810;2023-04-19T03:05:41;6.40;61.30
42135;DHT22;28312;43.460;11.810;2023-04-19T03:09:45;6.40;61.10
42135;DHT22;28312;43.460;11.810;2023-04-19T03:13:49;6.30;61.20
42135;DHT22;28312;43.460;11.810;2023-04-19T03:17:52;6.20;61.30
42135;DHT22;28312;43.460;11.810;2023-04-19T03:22:00;6.20;61.30
42135;DHT22;28312;43.460;11.810;2023-04-19T03:26:07;6.20;61.60
42135;DHT22;28312;43.460;11.810;2023-04-19T03:30:19;6.20;61.60
42135;DHT22;28312;43.460;11.810;2023-04-19T03:34:25;6.20;61.60
42135;DHT22;28312;43.460;11.810;2023-04-19T03:38:29;6.20;61.50
42135;DHT22;28312;43.460;11.810;2023-04-19T03:42:34;6.20;61.50
42135;DHT22;28312;43.460;11.810;2023-04-19T03:46:46;6.20;61.50
42135;DHT22;28312;43.460;11.810;2023-04-19T03:50:55;6.20;61.80
42135;DHT22;28312;43.460;11.810;2023-04-19T03:55:00;6.30;62.70
42135;DHT22;28312;43.460;11.810;2023-04-19T03:59:15;6.60;62.80
42135;DHT22;28312;43.460;11.810;2023-04-19T04:03:19;6.80;62.60
42135;DHT22;28312;43.460;11.810;2023-04-19T04:07:23;7.00;62.40
42135;DHT22;28312;43.460;11.810;2023-04-19T04:11:28;7.20;62.30
42135;DHT22;28312;43.460;11.810;2023-04-19T04:15:32;7.20;62.20
42135;DHT22;28312;43.460;11.810;2023-04-19T04:19:36;7.20;62.10
42135;DHT22;28312;43.460;11.810;2023-04-19T04:23:40;7.20;61.90
42135;DHT22;28312;43.460;11.810;2023-04-19T04:27:52;7.00;62.00
42135;DHT22;28312;43.460;11.810;2023-04-19T04:31:58;7.00;62.10
42135;DHT22;28312;43.460;11.810;2023-04-19T04:36:10;6.90;61.80
42135;DHT22;28312;43.460;11.810;2023-04-19T04:40:16;6.80;61.90
42135;DHT22;28312;43.460;11.810;2023-04-19T04:44:20;6.70;62.10
42135;DHT22;28312;43.460;11.810;2023-04-19T04:48:25;6.70;62.30
42135;DHT22;28312;43.460;11.810;2023-04-19T04:52:30;6.70;62.40
42135;DHT22;28312;43.460;11.810;2023-04-19T04:56:42;6.70;62.60
42135;DHT22;28312;43.460;11.810;2023-04-19T05:00:46;6.80;62.70
42135;DHT22;28312;43.460;11.810;2023-04-19T05:04:51;6.90;62.80
42135;DHT22;28312;43.460;11.810;2023-04-19T05:08:54;7.00;62.90
42135;DHT22;28312;43.460;11.810;2023-04-19T05:13:18;7.20;63.10
42135;DHT22;28312;43.460;11.810;2023-04-19T05:17:22;7.30;63.20
42135;DHT22;28312;43.460;11.810;2023-04-19T05:21:27;7.50;63.40
42135;DHT22;28312;43.460;11.810;2023-04-19T05:25:32;7.70;63.40
42135;DHT22;28312;43.460;11.810;2023-04-19T05:29:36;7.90;63.50
42135;DHT22;28312;43.460;11.810;2023-04-19T05:33:41;8.20;63.50
42135;DHT22;28312;43.460;11.810;2023-04-19T05:37:44;8.40;63.50
42135;DHT22;28312;43.460;11.810;2023-04-19T05:41:49;8.70;63.50
42135;DHT22;28312;43.460;11.810;2023-04-19T05:45:54;8.80;63.50
42135;DHT22;28312;43.460;11.810;2023-04-19T05:49:58;9.00;63.40
42135;DHT22;28312;43.460;11.810;2023-04-19T05:54:25;9.30;64.20
42135;DHT22;28312;43.460;11.810;2023-04-19T05:58:30;10.20;65.40
42135;DHT22;28312;43.460;11.810;2023-04-19T06:02:34;11.30;65.50
42135;DHT22;28312;43.460;11.810;2023-04-19T06:06:38;12.30;65.00
42135;DHT22;28312;43.460;11.810;2023-04-19T06:10:42;13.10;64.60
42135;DHT22;28312;43.460;11.810;2023-04-19T06:14:59;13.80;64.20
42135;DHT22;28312;43.460;11.810;2023-04-19T06:19:04;14.50;63.90
42135;DHT22;28312;43.460;11.810;2023-04-19T06:23:08;15.20;63.30
42135;DHT22;28312;43.460;11.810;2023-04-19T06:27:12;15.70;62.80
42135;DHT22;28312;43.460;11.810;2023-04-19T06:31:15;16.10;62.60
42135;DHT22;28312;43.460;11.810;2023-04-19T06:35:19;16.20;62.50
42135;DHT22;28312;43.460;11.810;2023-04-19T06:39:23;16.20;62.70
42135;DHT22;28312;43.460;11.810;2023-04-19T06:43:26;16.30;63.00
42135;DHT22;28312;43.460;11.810;2023-04-19T06:47:30;16.40;63.00
42135;DHT22;28312;43.460;11.810;2023-04-19T06:51:38;16.60;63.30
42135;DHT22;28312;43.460;11.810;2023-04-19T06:55:42;16.90;63.40
42135;DHT22;28312;43.460;11.810;2023-04-19T06:59:46;17.10;63.10
42135;DHT22;28312;43.460;11.810;2023-04-19T07:03:50;17.40;62.60
42135;DHT22;28312;43.460;11.810;2023-04-19T07:07:54;17.70;62.60
42135;DHT22;28312;43.460;11.810;2023-04-19T07:11:58;18.10;62.70
42135;DHT22;28312;43.460;11.810;2023-04-19T07:16:05;18.40;62.60
42135;DHT22;28312;43.460;11.810;2023-04-19T07:20:09;18.60;62.10
42135;DHT22;28312;43.460;11.810;2023-04-19T07:24:13;18.90;61.30
42135;DHT22;28312;43.460;11.810;2023-04-19T07:28:17;19.40;60.50
42135;DHT22;28312;43.460;11.810;2023-04-19T07:32:21;20.00;59.50
42135;DHT22;28312;43.460;11.810;2023-04-19T07:36:24;20.40;58.60
42135;DHT22;28312;43.460;11.810;2023-04-19T07:40:28;20.40;57.90
42135;DHT22;28312;43.460;11.810;2023-04-19T07:44:31;20.40;58.20
42135;DHT22;28312;43.460;11.810;2023-04-19T07:48:36;20.40;58.80
42135;DHT22;28312;43.460;11.810;2023-04-19T07:52:40;20.30;59.00
42135;DHT22;28312;43.460;11.810;2023-04-19T07:56:45;20.10;58.20
42135;DHT22;28312;43.460;11.810;2023-04-19T08:00:49;20.00;57.50
42135;DHT22;28312;43.460;11.810;2023-04-19T08:04:53;19.90;58.00
42135;DHT22;28312;43.460;11.810;2023-04-19T08:08:57;19.90;58.10
42135;DHT22;28312;43.460;11.810;2023-04-19T08:13:01;19.90;58.10
42135;DHT22;28312;43.460;11.810;2023-04-19T08:17:08;19.90;58.40
42135;DHT22;28312;43.460;11.810;2023-04-19T08:21:14;20.10;58.50
42135;DHT22;28312;43.460;11.810;2023-04-19T08:25:18;20.30;58.30
42135;DHT22;28312;43.460;11.810;2023-04-19T08:29:23;20.40;57.80
42135;DHT22;28312;43.460;11.810;2023-04-19T08:33:27;20.30;57.80
42135;DHT22;28312;43.460;11.810;2023-04-19T08:37:31;20.30;58.00
42135;DHT22;28312;43.460;11.810;2023-04-19T08:41:34;20.40;58.10
42135;DHT22;28312;43.460;11.810;2023-04-19T08:45:39;20.50;57.80
42135;DHT22;28312;43.460;11.810;2023-04-19T08:49:47;20.70;57.60
42135;DHT22;28312;43.460;11.810;2023-04-19T08:54:09;20.80;57.10
42135;DHT22;28312;43.460;11.810;2023-04-19T08:58:13;20.90;56.90
42135;DHT22;28312;43.460;11.810;2023-04-19T09:02:50;20.90;56.90
42135;DHT22;28312;43.460;11.810;2023-04-19T09:06:54;20.90;56.80
42135;DHT22;28312;43.460;11.810;2023-04-19T09:11:00;20.90;57.10
42135;DHT22;28312;43.460;11.810;2023-04-19T09:15:05;21.00;57.10
42135;DHT22;28312;43.460;11.810;2023-04-19T09:19:11;21.40;57.20
42135;DHT22;28312;43.460;11.810;2023-04-19T09:23:27;21.70;56.90
42135;DHT22;28312;43.460;11.810;2023-04-19T09:27:34;22.00;56.60
42135;DHT22;28312;43.460;11.810;2023-04-19T09:31:38;22.40;56.40
42135;DHT22;28312;43.460;11.810;2023-04-19T09:35:47;22.90;55.40
42135;DHT22;28312;43.460;11.810;2023-04-19T09:39:52;23.40;55.20
42135;DHT22;28312;43.460;11.810;2023-04-19T09:44:08;23.70;55.00
42135;DHT22;28312;43.460;11.810;2023-04-19T09:48:33;23.90;55.20
42135;DHT22;28312;43.460;11.810;2023-04-19T09:52:39;24.00;54.50
42135;DHT22;28312;43.460;11.810;2023-04-19T09:56:43;23.70;54.80
42135;DHT22;28312;43.460;11.810;2023-04-19T10:00:48;23.50;54.90
42135;DHT22;28312;43.460;11.810;2023-04-19T10:05:02;23.30;54.30
42135;DHT22;28312;43.460;11.810;2023-04-19T10:09:23;23.10;53.80
42135;DHT22;28312;43.460;11.810;2023-04-19T10:13:28;23.00;53.40
42135;DHT22;28312;43.460;11.810;2023-04-19T10:17:32;22.80;52.70
42135;DHT22;28312;43.460;11.810;2023-04-19T10:21:37;22.70;53.50
42135;DHT22;28312;43.460;11.810;2023-04-19T10:25:45;22.90;53.80
42135;DHT22;28312;43.460;11.810;2023-04-19T10:30:03;22.90;53.30
42135;DHT22;28312;43.460;11.810;2023-04-19T10:34:11;23.00;53.20
42135;DHT22;28312;43.460;11.810;2023-04-19T10:38:16;23.10;53.60
42135;DHT22;28312;43.460;11.810;2023-04-19T10:42:19;23.30;53.10
42135;DHT22;28312;43.460;11.810;2023-04-19T10:50:28;22.60;52.10
42135;DHT22;28312;43.460;11.810;2023-04-19T10:54:32;22.10;52.40
42135;DHT22;28312;43.460;11.810;2023-04-19T10:59:16;22.00;52.90
42135;DHT22;28312;43.460;11.810;2023-04-19T11:07:46;22.80;53.40
42135;DHT22;28312;43.460;11.810;2023-04-19T11:11:58;22.90;53.00
42135;DHT22;28312;43.460;11.810;2023-04-19T11:16:08;23.00;52.70
42135;DHT22;28312;43.460;11.810;2023-04-19T11:20:12;22.80;52.10
42135;DHT22;28312;43.460;11.810;2023-04-19T11:24:16;22.70;52.00
42135;DHT22;28312;43.460;11.810;2023-04-19T11:28:23;22.60;52.50
42135;DHT22;28312;43.460;11.810;2023-04-19T11:32:26;22.80;52.70
42135;DHT22;28312;43.460;11.810;2023-04-19T11:36:31;23.10;52.50
42135;DHT22;28312;43.460;11.810;2023-04-19T11:40:39;23.50;52.70
42135;DHT22;28312;43.460;11.810;2023-04-19T11:44:48;23.90;52.50
42135;DHT22;28312;43.460;11.810;2023-04-19T11:48:53;24.10;52.10
42135;DHT22;28312;43.460;11.810;2023-04-19T11:52:57;24.20;51.70
42135;DHT22;28312;43.460;11.810;2023-04-19T11:57:07;24.10;52.00
42135;DHT22;28312;43.460;11.810;2023-04-19T12:01:12;24.20;51.70
42135;DHT22;28312;43.460;11.810;2023-04-19T12:05:16;24.00;51.10
42135;DHT22;28312;43.460;11.810;2023-04-19T12:09:20;23.90;51.20
42135;DHT22;28312;43.460;11.810;2023-04-19T12:13:26;23.70;50.60
42135;DHT22;28312;43.460;11.810;2023-04-19T12:17:30;23.60;51.20
42135;DHT22;28312;43.460;11.810;2023-04-19T12:21:34;23.70;51.80
42135;DHT22;28312;43.460;11.810;2023-04-19T12:25:38;24.10;52.10
42135;DHT22;28312;43.460;11.810;2023-04-19T12:29:42;24.40;51.00
42135;DHT22;28312;43.460;11.810;2023-04-19T12:33:46;24.50;50.90
42135;DHT22;28312;43.460;11.810;2023-04-19T12:37:55;24.80;51.10
42135;DHT22;28312;43.460;11.810;2023-04-19T12:42:00;25.10;50.20
42135;DHT22;28312;43.460;11.810;2023-04-19T12:46:03;24.90;48.80
42135;DHT22;28312;43.460;11.810;2023-04-19T12:50:08;24.40;48.60
42135;DHT22;28312;43.460;11.810;2023-04-19T12:54:13;23.80;48.70
42135;DHT22;28312;43.460;11.810;2023-04-19T12:58:18;23.40;48.70
42135;DHT22;28312;43.460;11.810;2023-04-19T13:02:23;23.10;49.10
42135;DHT22;28312;43.460;11.810;2023-04-19T13:06:26;22.80;48.80
42135;DHT22;28312;43.460;11.810;2023-04-19T13:10:30;22.40;48.50
42135;DHT22;28312;43.460;11.810;2023-04-19T13:14:34;21.80;47.90
42135;DHT22;28312;43.460;11.810;2023-04-19T13:18:38;21.10;48.30
42135;DHT22;28312;43.460;11.810;2023-04-19T13:22:42;20.80;48.80
42135;DHT22;28312;43.460;11.810;2023-04-19T13:26:45;20.30;49.30
42135;DHT22;28312;43.460;11.810;2023-04-19T13:30:49;19.90;50.20
42135;DHT22;28312;43.460;11.810;2023-04-19T13:34:52;19.60;50.80
42135;DHT22;28312;43.460;11.810;2023-04-19T13:38:58;19.20;51.20
42135;DHT22;28312;43.460;11.810;2023-04-19T13:43:02;19.20;51.40
42135;DHT22;28312;43.460;11.810;2023-04-19T13:47:06;19.10;51.50
42135;DHT22;28312;43.460;11.810;2023-04-19T13:51:09;19.10;51.30
42135;DHT22;28312;43.460;11.810;2023-04-19T13:55:13;18.90;51.30
42135;DHT22;28312;43.460;11.810;2023-04-19T13:59:20;18.80;52.60
42135;DHT22;28312;43.460;11.810;2023-04-19T14:03:23;19.00;53.70
42135;DHT22;28312;43.460;11.810;2023-04-19T14:07:27;19.00;53.60
42135;DHT22;28312;43.460;11.810;2023-04-19T14:11:32;18.90;53.50
42135;DHT22;28312;43.460;11.810;2023-04-19T14:15:35;18.70;53.60
42135;DHT22;28312;43.460;11.810;2023-04-19T14:19:38;18.70;53.90
42135;DHT22;28312;43.460;11.810;2023-04-19T14:23:42;18.70;54.00
42135;DHT22;28312;43.460;11.810;2023-04-19T14:27:45;18.70;53.80
42135;DHT22;28312;43.460;11.810;2023-04-19T14:31:50;18.70;53.60
42135;DHT22;28312;43.460;11.810;2023-04-19T14:35:53;18.40;53.80
42135;DHT22;28312;43.460;11.810;2023-04-19T14:39:57;18.20;53.90
42135;DHT22;28312;43.460;11.810;2023-04-19T14:44:01;18.00;54.30
42135;DHT22;28312;43.460;11.810;2023-04-19T14:48:04;17.70;54.60
42135;DHT22;28312;43.460;11.810;2023-04-19T14:52:08;17.60;55.10
42135;DHT22;28312;43.460;11.810;2023-04-19T14:56:12;17.60;55.00
42135;DHT22;28312;43.460;11.810;2023-04-19T15:00:15;17.50;55.10
42135;DHT22;28312;43.460;11.810;2023-04-19T15:04:19;17.60;55.20
42135;DHT22;28312;43.460;11.810;2023-04-19T15:08:23;17.70;55.10
42135;DHT22;28312;43.460;11.810;2023-04-19T15:12:33;17.70;55.00
42135;DHT22;28312;43.460;11.810;2023-04-19T15:16:36;17.70;55.00
42135;DHT22;28312;43.460;11.810;2023-04-19T15:20:43;17.60;55.00
42135;DHT22;28312;43.460;11.810;2023-04-19T15:24:46;17.50;55.20
42135;DHT22;28312;43.460;11.810;2023-04-19T15:28:50;17.50;55.20
42135;DHT22;28312;43.460;11.810;2023-04-19T15:32:53;17.50;55.40
42135;DHT22;28312;43.460;11.810;2023-04-19T15:36:58;17.50;55.40
42135;DHT22;28312;43.460;11.810;2023-04-19T15:41:01;17.50;55.90
42135;DHT22;28312;43.460;11.810;2023-04-19T15:45:06;17.40;55.80
42135;DHT22;28312;43.460;11.810;2023-04-19T15:49:10;17.10;56.10
42135;DHT22;28312;43.460;11.810;2023-04-19T15:53:14;16.70;56.60
42135;DHT22;28312;43.460;11.810;2023-04-19T15:57:18;16.40;57.10
42135;DHT22;28312;43.460;11.810;2023-04-19T16:01:24;16.20;57.40
42135;DHT22;28312;43.460;11.810;2023-04-19T16:05:27;15.90;57.90
42135;DHT22;28312;43.460;11.810;2023-04-19T16:09:32;15.80;58.00
42135;DHT22;28312;43.460;11.810;2023-04-19T16:13:35;15.70;58.10
42135;DHT22;28312;43.460;11.810;2023-04-19T16:17:39;15.70;58.10
42135;DHT22;28312;43.460;11.810;2023-04-19T16:21:42;15.60;58.10
42135;DHT22;28312;43.460;11.810;2023-04-19T16:25:49;15.60;58.10
42135;DHT22;28312;43.460;11.810;2023-04-19T16:29:52;15.60;58.00
42135;DHT22;28312;43.460;11.810;2023-04-19T16:33:56;15.40;58.10
42135;DHT22;28312;43.460;11.810;2023-04-19T16:37:59;15.40;58.20
42135;DHT22;28312;43.460;11.810;2023-04-19T16:42:08;15.30;58.30
42135;DHT22;28312;43.460;11.810;2023-04-19T16:46:13;15.10;57.80
42135;DHT22;28312;43.460;11.810;2023-04-19T16:50:17;14.90;58.00
42135;DHT22;28312;43.460;11.810;2023-04-19T16:54:21;14.90;58.30
42135;DHT22;28312;43.460;11.810;2023-04-19T16:58:25;14.90;58.20
42135;DHT22;28312;43.460;11.810;2023-04-19T17:02:30;14.90;58.30
42135;DHT22;28312;43.460;11.810;2023-04-19T17:06:34;15.00;58.50
42135;DHT22;28312;43.460;11.810;2023-04-19T17:10:37;15.10;58.30
42135;DHT22;28312;43.460;11.810;2023-04-19T17:14:41;15.10;58.40
42135;DHT22;28312;43.460;11.810;2023-04-19T17:18:44;15.10;58.50
42135;DHT22;28312;43.460;11.810;2023-04-19T17:22:48;15.20;58.50
42135;DHT22;28312;43.460;11.810;2023-04-19T17:26:51;15.10;58.60
42135;DHT22;28312;43.460;11.810;2023-04-19T17:30:55;15.00;58.90
42135;DHT22;28312;43.460;11.810;2023-04-19T17:34:59;15.00;59.10
42135;DHT22;28312;43.460;11.810;2023-04-19T17:39:03;14.90;59.10
42135;DHT22;28312;43.460;11.810;2023-04-19T17:43:09;14.90;59.10
42135;DHT22;28312;43.460;11.810;2023-04-19T17:47:13;14.80;59.10
42135;DHT22;28312;43.460;11.810;2023-04-19T17:51:16;14.80;59.10
42135;DHT22;28312;43.460;11.810;2023-04-19T17:55:20;14.70;59.20
42135;DHT22;28312;43.460;11.810;2023-04-19T17:59:23;14.70;59.60
42135;DHT22;28312;43.460;11.810;2023-04-19T18:03:27;14.50;59.80
42135;DHT22;28312;43.460;11.810;2023-04-19T18:07:31;14.40;60.00
42135;DHT22;28312;43.460;11.810;2023-04-19T18:11:35;14.40;60.10
42135;DHT22;28312;43.460;11.810;2023-04-19T18:15:38;14.30;60.30
42135;DHT22;28312;43.460;11.810;2023-04-19T18:19:42;14.20;60.40
42135;DHT22;28312;43.460;11.810;2023-04-19T18:23:47;14.20;60.40
42135;DHT22;28312;43.460;11.810;2023-04-19T18:27:51;14.00;60.80
42135;DHT22;28312;43.460;11.810;2023-04-19T18:31:54;13.90;61.00
42135;DHT22;28312;43.460;11.810;2023-04-19T18:35:58;13.80;61.20
42135;DHT22;28312;43.460;11.810;2023-04-19T18:40:02;13.80;61.30
42135;DHT22;28312;43.460;11.810;2023-04-19T18:44:09;13.80;61.20
42135;DHT22;28312;43.460;11.810;2023-04-19T18:48:33;13.80;61.20
42135;DHT22;28312;43.460;11.810;2023-04-19T18:52:36;13.80;61.50
42135;DHT22;28312;43.460;11.810;2023-04-19T18:56:40;13.70;62.00
42135;DHT22;28312;43.460;11.810;2023-04-19T19:01:03;13.60;62.40
42135;DHT22;28312;43.460;11.810;2023-04-19T19:05:07;13.50;62.70
42135;DHT22;28312;43.460;11.810;2023-04-19T19:09:12;13.40;62.80
42135;DHT22;28312;43.460;11.810;2023-04-19T19:13:16;13.40;63.00
42135;DHT22;28312;43.460;11.810;2023-04-19T19:17:20;13.30;63.10
42135;DHT22;28312;43.460;11.810;2023-04-19T19:21:24;13.30;63.00
42135;DHT22;28312;43.460;11.810;2023-04-19T19:25:29;13.40;63.00
42135;DHT22;28312;43.460;11.810;2023-04-19T19:29:34;13.30;62.90
42135;DHT22;28312;43.460;11.810;2023-04-19T19:33:38;13.30;62.80
42135;DHT22;28312;43.460;11.810;2023-04-19T19:37:43;13.20;62.90
42135;DHT22;28312;43.460;11.810;2023-04-19T19:41:46;13.20;63.00
42135;DHT22;28312;43.460;11.810;2023-04-19T19:45:52;13.20;63.20
42135;DHT22;28312;43.460;11.810;2023-04-19T19:50:03;13.10;63.30
42135;DHT22;28312;43.460;11.810;2023-04-19T19:54:27;13.00;63.40
42135;DHT22;28312;43.460;11.810;2023-04-19T19:58:31;12.90;63.40
42135;DHT22;28312;43.460;11.810;2023-04-19T20:02:44;12.90;63.50
42135;DHT22;28312;43.460;11.810;2023-04-19T20:06:58;12.90;63.50
42135;DHT22;28312;43.460;11.810;2023-04-19T20:11:04;12.90;63.60
42135;DHT22;28312;43.460;11.810;2023-04-19T20:15:10;12.80;63.70
42135;DHT22;28312;43.460;11.810;2023-04-19T20:19:14;12.70;63.70
42135;DHT22;28312;43.460;11.810;2023-04-19T20:23:19;12.70;63.70
42135;DHT22;28312;43.460;11.810;2023-04-19T20:27:23;12.70;63.70
42135;DHT22;28312;43.460;11.810;2023-04-19T20:31:28;12.70;63.70
42135;DHT22;28312;43.460;11.810;2023-04-19T20:35:32;12.70;63.80
42135;DHT22;28312;43.460;11.810;2023-04-19T20:39:38;12.70;63.80
42135;DHT22;28312;43.460;11.810;2023-04-19T20:43:42;12.70;63.80
42135;DHT22;28312;43.460;11.810;2023-04-19T20:47:45;12.70;63.90
42135;DHT22;28312;43.460;11.810;2023-04-19T20:51:49;12.70;64.00
42135;DHT22;28312;43.460;11.810;2023-04-19T20:55:53;12.70;64.00
42135;DHT22;28312;43.460;11.810;2023-04-19T20:59:57;12.60;64.00
42135;DHT22;28312;43.460;11.810;2023-04-19T21:04:05;12.60;64.00
42135;DHT22;28312;43.460;11.810;2023-04-19T21:08:10;12.60;64.00
42135;DHT22;28312;43.460;11.810;2023-04-19T21:12:14;12.50;64.10
42135;DHT22;28312;43.460;11.810;2023-04-19T21:16:18;12.60;64.00
42135;DHT22;28312;43.460;11.810;2023-04-19T21:20:21;12.60;64.00
42135;DHT22;28312;43.460;11.810;2023-04-19T21:24:25;12.60;64.00
42135;DHT22;28312;43.460;11.810;2023-04-19T21:28:28;12.60;63.90
42135;DHT22;28312;43.460;11.810;2023-04-19T21:32:32;12.60;63.90
42135;DHT22;28312;43.460;11.810;2023-04-19T21:36:36;12.60;63.90
42135;DHT22;28312;43.460;11.810;2023-04-19T21:40:39;12.60;63.90
42135;DHT22;28312;43.460;11.810;2023-04-19T21:44:44;12.50;63.90
42135;DHT22;28312;43.460;11.810;2023-04-19T21:48:48;12.50;63.90
42135;DHT22;28312;43.460;11.810;2023-04-19T21:52:51;12.50;63.90
42135;DHT22;28312;43.460;11.810;2023-04-19T21:56:55;12.50;64.00
42135;DHT22;28312;43.460;11.810;2023-04-19T22:00:59;12.60;64.10
42135;DHT22;28312;43.460;11.810;2023-04-19T22:05:03;12.60;64.10
42135;DHT22;28312;43.460;11.810;2023-04-19T22:09:09;12.50;64.10
42135;DHT22;28312;43.460;11.810;2023-04-19T22:13:16;12.50;64.10
42135;DHT22;28312;43.460;11.810;2023-04-19T22:17:20;12.30;64.30
42135;DHT22;28312;43.460;11.810;2023-04-19T22:21:24;12.30;64.30
42135;DHT22;28312;43.460;11.810;2023-04-19T22:25:28;12.20;64.30
42135;DHT22;28312;43.460;11.810;2023-04-19T22:29:31;12.20;64.30
42135;DHT22;28312;43.460;11.810;2023-04-19T22:33:36;12.20;64.30
42135;DHT22;28312;43.460;11.810;2023-04-19T22:37:39;12.00;64.30
42135;DHT22;28312;43.460;11.810;2023-04-19T22:41:44;11.80;64.40
42135;DHT22;28312;43.460;11.810;2023-04-19T22:45:48;11.70;64.60
42135;DHT22;28312;43.460;11.810;2023-04-19T22:49:53;11.60;64.70
42135;DHT22;28312;43.460;11.810;2023-04-19T22:53:56;11.60;64.90
42135;DHT22;28312;43.460;11.810;2023-04-19T22:58:00;11.60;64.80
42135;DHT22;28312;43.460;11.810;2023-04-19T23:02:03;11.60;64.80
42135;DHT22;28312;43.460;11.810;2023-04-19T23:06:07;11.60;64.80
42135;DHT22;28312;43.460;11.810;2023-04-19T23:10:11;11.60;64.90
42135;DHT22;28312;43.460;11.810;2023-04-19T23:14:16;11.70;65.10
42135;DHT22;28312;43.460;11.810;2023-04-19T23:18:22;11.70;65.10
42135;DHT22;28312;43.460;11.810;2023-04-19T23:22:27;11.70;65.10
42135;DHT22;28312;43.460;11.810;2023-04-19T23:26:30;11.70;65.20
42135;DHT22;28312;43.460;11.810;2023-04-19T23:30:34;11.70;65.20
42135;DHT22;28312;43.460;11.810;2023-04-19T23:34:37;11.70;65.20
42135;DHT22;28312;43.460;11.810;2023-04-19T23:38:40;11.70;65.20
42135;DHT22;28312;43.460;11.810;2023-04-19T23:42:44;11.70;65.20
42135;DHT22;28312;43.460;11.810;2023-04-19T23:46:48;11.70;65.20
42135;DHT22;28312;43.460;11.810;2023-04-19T23:50:54;11.70;65.20
42135;DHT22;28312;43.460;11.810;2023-04-19T23:54:58;11.70;65.10
42135;DHT22;28312;43.460;11.810;2023-04-19T23:59:03;11.70;65.10
